Wetterdaten: Woche 27.07.09 - 02.08.09 (KW31)
Datum Zeit Temp. Innen Temp. Aussen UV X Diff Temp. Feuchte Inne Feuchte Auss Sonnenschein Luftdruck Regen ab 0,1 Wind Sonnenschein Windben
27.07.2009 00:00 23,1 C 17,9 C 0,0 UV-I 0,0 C 57 % 76 % 0 % 1017,0 hPa 0,0 l/m 0,1 km/h (0 Bft) 0,00 h 0,4 km/h (0 Bft)
27.07.2009 01:00 22,9 C 17,4 C 0,0 UV-I 0,0 C 57 % 76 % 0 % 1016,4 hPa 0,0 l/m 0,4 km/h (0 Bft) 0,00 h 1,4 km/h (1 Bft)
27.07.2009 02:00 22,7 C 17,2 C 0,0 UV-I 0,0 C 57 % 76 % 0 % 1015,7 hPa 0,0 l/m 0,5 km/h (0 Bft) 0,00 h 1,6 km/h (1 Bft)
27.07.2009 03:00 22,5 C 16,7 C 0,0 UV-I 0,0 C 57 % 77 % 0 % 1015,0 hPa 0,0 l/m 1,1 km/h (1 Bft) 0,00 h 3,0 km/h (1 Bft)
27.07.2009 04:00 22,3 C 16,1 C 0,0 UV-I 0,0 C 56 % 78 % 0 % 1014,4 hPa 0,0 l/m 0,4 km/h (0 Bft) 0,00 h 1,3 km/h (1 Bft)
27.07.2009 05:00 22,1 C 15,2 C 0,0 UV-I 0,0 C 56 % 81 % 0 % 1013,9 hPa 0,0 l/m 0,0 km/h (0 Bft) 0,00 h 0,4 km/h (0 Bft)
27.07.2009 06:00 21,9 C 14,4 C 0,1 UV-I 0,0 C 56 % 83 % 0 % 1013,4 hPa 0,0 l/m 0,3 km/h (0 Bft) 0,00 h 1,4 km/h (1 Bft)
27.07.2009 07:00 21,8 C 14,7 C 0,8 UV-I 0,3 C 57 % 84 % 8 % 1012,8 hPa 0,0 l/m 1,3 km/h (1 Bft) 0,00 h 3,1 km/h (1 Bft)
27.07.2009 08:00 21,8 C 16,4 C 1,4 UV-I 1,1 C 57 % 81 % 31 % 1012,6 hPa 0,0 l/m 3,7 km/h (1 Bft) 0,00 h 7,5 km/h (2 Bft)
27.07.2009 09:00 22,1 C 18,7 C 1,9 UV-I 1,9 C 58 % 76 % 52 % 1012,1 hPa 0,0 l/m 3,1 km/h (1 Bft) 0,13 h 6,3 km/h (2 Bft)
27.07.2009 10:00 22,5 C 22,2 C 11,7 UV-I 5,8 C 57 % 65 % 100 % 1011,8 hPa 0,0 l/m 6,0 km/h (2 Bft) 0,97 h 10,8 km/h (2 Bft)
27.07.2009 11:00 22,8 C 26,0 C 13,6 UV-I 5,0 C 56 % 51 % 100 % 1011,0 hPa 0,0 l/m 4,8 km/h (1 Bft) 0,93 h 9,2 km/h (2 Bft)
27.07.2009 12:00 23,2 C 28,1 C 8,2 UV-I 3,6 C 54 % 42 % 96 % 1010,6 hPa 0,0 l/m 6,0 km/h (2 Bft) 0,97 h 10,7 km/h (2 Bft)
27.07.2009 13:00 23,8 C 29,0 C 7,3 UV-I 3,3 C 52 % 39 % 95 % 1010,4 hPa 0,0 l/m 6,2 km/h (2 Bft) 0,87 h 11,4 km/h (2 Bft)
27.07.2009 14:00 24,8 C 29,0 C 4,2 UV-I 1,5 C 50 % 39 % 42 % 1010,8 hPa 0,0 l/m 5,5 km/h (1 Bft) 0,33 h 9,0 km/h (2 Bft)
27.07.2009 15:00 25,2 C 28,2 C 3,8 UV-I 1,2 C 50 % 43 % 34 % 1011,1 hPa 0,0 l/m 4,4 km/h (1 Bft) 0,07 h 8,3 km/h (2 Bft)
27.07.2009 16:00 25,3 C 26,3 C 0,7 UV-I 0,0 C 51 % 49 % 0 % 1011,9 hPa 0,1 l/m 4,7 km/h (1 Bft) 0,00 h 8,0 km/h (2 Bft)
27.07.2009 17:00 24,8 C 23,2 C 0,8 UV-I 0,0 C 53 % 58 % 0 % 1012,0 hPa 0,0 l/m 2,7 km/h (1 Bft) 0,00 h 5,8 km/h (2 Bft)
27.07.2009 18:00 24,4 C 21,6 C 0,5 UV-I 0,0 C 55 % 66 % 0 % 1013,2 hPa 0,1 l/m 6,5 km/h (2 Bft) 0,00 h 12,5 km/h (3 Bft)
27.07.2009 19:00 24,0 C 20,4 C 0,4 UV-I 0,0 C 55 % 67 % 0 % 1013,7 hPa 0,0 l/m 5,4 km/h (1 Bft) 0,00 h 10,0 km/h (2 Bft)
27.07.2009 20:00 23,8 C 20,0 C 0,3 UV-I 0,0 C 56 % 71 % 0 % 1013,8 hPa 0,0 l/m 3,9 km/h (1 Bft) 0,00 h 6,6 km/h (2 Bft)
27.07.2009 21:00 23,6 C 19,2 C 0,0 UV-I 0,0 C 56 % 70 % 0 % 1015,0 hPa 0,0 l/m 4,3 km/h (1 Bft) 0,00 h 8,8 km/h (2 Bft)
27.07.2009 22:00 23,2 C 18,2 C 0,0 UV-I 0,0 C 55 % 70 % 0 % 1016,0 hPa 0,0 l/m 4,0 km/h (1 Bft) 0,00 h 8,9 km/h (2 Bft)
27.07.2009 23:00 22,9 C 17,1 C 0,0 UV-I 0,0 C 55 % 73 % 0 % 1017,0 hPa 0,0 l/m 2,3 km/h (1 Bft) 0,00 h 5,9 km/h (2 Bft)
28.07.2009 00:00 22,7 C 15,9 C 0,0 UV-I 0,0 C 56 % 77 % 0 % 1017,3 hPa 0,0 l/m 0,7 km/h (0 Bft) 0,00 h 0,8 km/h (0 Bft)
28.07.2009 01:00 22,3 C 14,7 C 0,0 UV-I 0,0 C 55 % 81 % 0 % 1017,9 hPa 0,0 l/m 0,0 km/h (0 Bft) 0,00 h 0,8 km/h (0 Bft)
28.07.2009 02:00 21,9 C 14,0 C 0,0 UV-I 0,0 C 55 % 83 % 0 % 1018,1 hPa 0,0 l/m 1,1 km/h (1 Bft) 0,00 h 3,4 km/h (1 Bft)
28.07.2009 03:00 21,5 C 13,7 C 0,0 UV-I 0,0 C 56 % 84 % 0 % 1018,3 hPa 0,0 l/m 1,6 km/h (1 Bft) 0,00 h 3,6 km/h (1 Bft)
28.07.2009 04:00 21,2 C 13,6 C 0,0 UV-I 0,0 C 56 % 85 % 0 % 1018,7 hPa 0,0 l/m 2,0 km/h (1 Bft) 0,00 h 4,1 km/h (1 Bft)
28.07.2009 05:00 21,0 C 13,3 C 0,0 UV-I 0,0 C 56 % 85 % 0 % 1019,2 hPa 0,0 l/m 1,2 km/h (1 Bft) 0,00 h 3,1 km/h (1 Bft)
28.07.2009 06:00 20,8 C 13,3 C 0,0 UV-I 0,0 C 57 % 86 % 1 % 1019,6 hPa 0,0 l/m 1,6 km/h (1 Bft) 0,00 h 5,1 km/h (1 Bft)
28.07.2009 07:00 20,8 C 14,1 C 0,3 UV-I 0,3 C 57 % 86 % 9 % 1020,2 hPa 0,0 l/m 3,2 km/h (1 Bft) 0,00 h 7,0 km/h (2 Bft)
28.07.2009 08:00 20,9 C 14,8 C 0,6 UV-I 0,4 C 58 % 85 % 11 % 1020,9 hPa 0,0 l/m 3,7 km/h (1 Bft) 0,00 h 6,9 km/h (2 Bft)
28.07.2009 09:00 21,1 C 15,8 C 2,0 UV-I 1,4 C 59 % 83 % 40 % 1021,2 hPa 0,0 l/m 3,4 km/h (1 Bft) 0,03 h 6,4 km/h (2 Bft)
28.07.2009 10:00 21,4 C 17,5 C 8,5 UV-I 4,5 C 59 % 77 % 99 % 1021,5 hPa 0,0 l/m 3,8 km/h (1 Bft) 0,87 h 6,7 km/h (2 Bft)
28.07.2009 11:00 21,7 C 19,7 C 11,9 UV-I 5,0 C 57 % 67 % 100 % 1021,8 hPa 0,0 l/m 4,5 km/h (1 Bft) 0,90 h 8,2 km/h (2 Bft)
28.07.2009 12:00 21,9 C 21,6 C 7,7 UV-I 3,8 C 54 % 54 % 99 % 1021,7 hPa 0,0 l/m 5,8 km/h (2 Bft) 0,87 h 9,6 km/h (2 Bft)
28.07.2009 13:00 22,3 C 22,8 C 6,8 UV-I 3,4 C 51 % 48 % 92 % 1021,7 hPa 0,0 l/m 4,6 km/h (1 Bft) 0,70 h 9,9 km/h (2 Bft)
28.07.2009 14:00 23,2 C 23,7 C 5,4 UV-I 2,5 C 49 % 45 % 71 % 1021,7 hPa 0,0 l/m 3,8 km/h (1 Bft) 0,27 h 7,4 km/h (2 Bft)
28.07.2009 15:00 23,9 C 24,2 C 5,3 UV-I 3,2 C 48 % 44 % 79 % 1021,8 hPa 0,0 l/m 3,9 km/h (1 Bft) 0,67 h 7,8 km/h (2 Bft)
28.07.2009 16:00 24,9 C 25,1 C 7,6 UV-I 3,8 C 46 % 42 % 91 % 1021,2 hPa 0,0 l/m 3,9 km/h (1 Bft) 0,80 h 8,2 km/h (2 Bft)
28.07.2009 17:00 25,7 C 25,3 C 2,9 UV-I 3,0 C 44 % 41 % 80 % 1020,4 hPa 0,0 l/m 3,5 km/h (1 Bft) 0,60 h 7,5 km/h (2 Bft)
28.07.2009 18:00 26,0 C 24,4 C 2,0 UV-I 3,0 C 43 % 42 % 79 % 1021,2 hPa 0,0 l/m 2,3 km/h (1 Bft) 0,43 h 4,9 km/h (1 Bft)
28.07.2009 19:00 25,4 C 23,2 C 1,2 UV-I 0,2 C 44 % 45 % 6 % 1021,6 hPa 0,0 l/m 0,7 km/h (0 Bft) 0,00 h 2,1 km/h (1 Bft)
28.07.2009 20:00 24,8 C 22,1 C 0,5 UV-I 0,0 C 45 % 50 % 0 % 1021,1 hPa 0,0 l/m 0,8 km/h (0 Bft) 0,00 h 1,5 km/h (1 Bft)
28.07.2009 21:00 24,4 C 20,3 C 0,0 UV-I 0,0 C 48 % 60 % 0 % 1021,4 hPa 0,0 l/m 0,0 km/h (0 Bft) 0,00 h 0,0 km/h (0 Bft)
28.07.2009 22:00 23,8 C 18,6 C 0,0 UV-I 0,0 C 52 % 68 % 0 % 1021,5 hPa 0,0 l/m 0,0 km/h (0 Bft) 0,00 h 0,0 km/h (0 Bft)
28.07.2009 23:00 23,3 C 17,2 C 0,0 UV-I 0,0 C 53 % 71 % 0 % 1020,8 hPa 0,0 l/m 0,0 km/h (0 Bft) 0,00 h 0,0 km/h (0 Bft)
29.07.2009 00:00 22,9 C 16,2 C 0,0 UV-I 0,0 C 53 % 75 % 0 % 1020,5 hPa 0,0 l/m 0,0 km/h (0 Bft) 0,00 h 0,0 km/h (0 Bft)
29.07.2009 01:00 22,6 C 15,4 C 0,0 UV-I 0,0 C 53 % 76 % 0 % 1020,3 hPa 0,0 l/m 0,0 km/h (0 Bft) 0,00 h 0,2 km/h (0 Bft)
29.07.2009 02:00 22,3 C 15,2 C 0,0 UV-I 0,0 C 53 % 77 % 0 % 1019,9 hPa 0,0 l/m 0,1 km/h (0 Bft) 0,00 h 0,8 km/h (0 Bft)
29.07.2009 03:00 22,2 C 14,9 C 0,0 UV-I 0,0 C 53 % 79 % 0 % 1019,4 hPa 0,0 l/m 0,1 km/h (0 Bft) 0,00 h 0,6 km/h (0 Bft)
29.07.2009 04:00 22,0 C 14,8 C 0,0 UV-I 0,0 C 54 % 80 % 0 % 1019,3 hPa 0,0 l/m 0,7 km/h (0 Bft) 0,00 h 2,1 km/h (1 Bft)
29.07.2009 05:00 21,8 C 14,7 C 0,0 UV-I 0,0 C 54 % 80 % 0 % 1019,0 hPa 0,0 l/m 1,5 km/h (1 Bft) 0,00 h 3,9 km/h (1 Bft)
29.07.2009 06:00 21,6 C 14,7 C 0,1 UV-I 0,0 C 55 % 81 % 0 % 1018,9 hPa 0,0 l/m 1,0 km/h (0 Bft) 0,00 h 3,0 km/h (1 Bft)
29.07.2009 07:00 21,6 C 15,0 C 0,5 UV-I 0,3 C 55 % 81 % 7 % 1018,9 hPa 0,0 l/m 0,9 km/h (0 Bft) 0,00 h 3,0 km/h (1 Bft)
29.07.2009 08:00 21,9 C 16,2 C 1,3 UV-I 0,9 C 55 % 79 % 25 % 1019,0 hPa 0,0 l/m 1,1 km/h (1 Bft) 0,00 h 2,5 km/h (1 Bft)
29.07.2009 09:00 22,2 C 18,0 C 2,2 UV-I 1,6 C 55 % 74 % 45 % 1018,7 hPa 0,0 l/m 2,5 km/h (1 Bft) 0,00 h 5,4 km/h (1 Bft)
29.07.2009 10:00 22,5 C 20,7 C 8,1 UV-I 4,2 C 55 % 67 % 87 % 1018,6 hPa 0,0 l/m 3,9 km/h (1 Bft) 0,63 h 5,9 km/h (2 Bft)
29.07.2009 11:00 22,9 C 24,3 C 11,7 UV-I 5,3 C 55 % 56 % 100 % 1018,1 hPa 0,0 l/m 3,0 km/h (1 Bft) 0,87 h 5,9 km/h (2 Bft)
29.07.2009 12:00 23,2 C 27,1 C 7,9 UV-I 4,5 C 54 % 48 % 100 % 1017,5 hPa 0,0 l/m 2,9 km/h (1 Bft) 0,97 h 6,0 km/h (2 Bft)
29.07.2009 13:00 23,7 C 28,5 C 5,6 UV-I 2,2 C 53 % 43 % 61 % 1016,8 hPa 0,0 l/m 4,5 km/h (1 Bft) 0,30 h 8,3 km/h (2 Bft)
29.07.2009 14:00 24,3 C 28,6 C 4,8 UV-I 1,4 C 52 % 43 % 41 % 1016,3 hPa 0,0 l/m 5,4 km/h (1 Bft) 0,00 h 8,6 km/h (2 Bft)
29.07.2009 15:00 24,8 C 28,6 C 4,9 UV-I 1,6 C 50 % 40 % 47 % 1015,9 hPa 0,0 l/m 6,0 km/h (2 Bft) 0,00 h 12,6 km/h (3 Bft)
29.07.2009 16:00 25,3 C 28,7 C 4,1 UV-I 1,1 C 49 % 40 % 31 % 1015,4 hPa 0,0 l/m 4,8 km/h (1 Bft) 0,00 h 8,7 km/h (2 Bft)
29.07.2009 17:00 25,6 C 28,5 C 2,6 UV-I 1,0 C 48 % 40 % 28 % 1014,9 hPa 0,0 l/m 2,9 km/h (1 Bft) 0,00 h 5,1 km/h (1 Bft)
29.07.2009 18:00 25,7 C 27,9 C 1,4 UV-I 0,8 C 47 % 41 % 23 % 1014,4 hPa 0,0 l/m 3,5 km/h (1 Bft) 0,00 h 6,3 km/h (2 Bft)
29.07.2009 19:00 25,6 C 26,7 C 0,4 UV-I 0,0 C 48 % 45 % 0 % 1014,2 hPa 0,0 l/m 1,0 km/h (0 Bft) 0,00 h 3,0 km/h (1 Bft)
29.07.2009 20:00 25,3 C 25,7 C 0,0 UV-I 0,0 C 49 % 48 % 0 % 1013,6 hPa 0,0 l/m 1,3 km/h (1 Bft) 0,00 h 3,4 km/h (1 Bft)
29.07.2009 21:00 25,0 C 24,5 C 0,0 UV-I 0,0 C 50 % 53 % 0 % 1013,0 hPa 0,0 l/m 0,5 km/h (0 Bft) 0,00 h 1,2 km/h (1 Bft)
29.07.2009 22:00 24,7 C 23,1 C 0,0 UV-I 0,0 C 52 % 57 % 0 % 1012,5 hPa 0,0 l/m 0,0 km/h (0 Bft) 0,00 h 0,0 km/h (0 Bft)
29.07.2009 23:00 24,4 C 22,0 C 0,0 UV-I 0,0 C 54 % 62 % 0 % 1012,0 hPa 0,0 l/m 0,1 km/h (0 Bft) 0,00 h 0,4 km/h (0 Bft)
30.07.2009 00:00 24,2 C 21,4 C 0,0 UV-I 0,0 C 56 % 68 % 0 % 1011,9 hPa 0,0 l/m 2,0 km/h (1 Bft) 0,00 h 5,4 km/h (1 Bft)
30.07.2009 01:00 24,0 C 19,9 C 0,0 UV-I 0,0 C 60 % 79 % 0 % 1011,8 hPa 1,6 l/m 1,2 km/h (1 Bft) 0,00 h 2,3 km/h (1 Bft)
30.07.2009 02:00 23,6 C 19,1 C 0,0 UV-I 0,0 C 62 % 85 % 0 % 1012,2 hPa 0,0 l/m 2,3 km/h (1 Bft) 0,00 h 5,1 km/h (1 Bft)
30.07.2009 03:00 23,3 C 18,4 C 0,0 UV-I 0,0 C 63 % 86 % 0 % 1012,3 hPa 0,0 l/m 1,2 km/h (1 Bft) 0,00 h 2,7 km/h (1 Bft)
30.07.2009 04:00 23,0 C 17,5 C 0,0 UV-I 0,0 C 62 % 85 % 0 % 1013,3 hPa 0,0 l/m 1,2 km/h (1 Bft) 0,00 h 2,7 km/h (1 Bft)
30.07.2009 05:00 22,7 C 17,1 C 0,0 UV-I 0,0 C 61 % 83 % 0 % 1014,0 hPa 0,0 l/m 1,3 km/h (1 Bft) 0,00 h 3,2 km/h (1 Bft)
30.07.2009 06:00 22,5 C 17,0 C 0,0 UV-I 0,0 C 59 % 81 % 0 % 1014,5 hPa 0,0 l/m 3,4 km/h (1 Bft) 0,00 h 6,8 km/h (2 Bft)
30.07.2009 07:00 22,3 C 17,0 C 0,2 UV-I 0,0 C 59 % 79 % 0 % 1015,5 hPa 0,0 l/m 4,7 km/h (1 Bft) 0,00 h 9,7 km/h (2 Bft)
30.07.2009 08:00 22,3 C 17,3 C 0,8 UV-I 0,1 C 58 % 75 % 3 % 1016,6 hPa 0,0 l/m 6,2 km/h (2 Bft) 0,00 h 11,7 km/h (2 Bft)
30.07.2009 09:00 22,5 C 17,8 C 1,9 UV-I 0,6 C 56 % 69 % 16 % 1017,9 hPa 0,0 l/m 6,7 km/h (2 Bft) 0,00 h 10,1 km/h (2 Bft)
30.07.2009 10:00 22,9 C 18,7 C 8,6 UV-I 3,6 C 55 % 65 % 96 % 1019,1 hPa 0,0 l/m 8,2 km/h (2 Bft) 0,73 h 13,3 km/h (3 Bft)
30.07.2009 11:00 23,1 C 19,9 C 6,8 UV-I 2,5 C 54 % 60 % 73 % 1020,0 hPa 0,0 l/m 7,2 km/h (2 Bft) 0,23 h 13,3 km/h (3 Bft)
30.07.2009 12:00 23,2 C 20,4 C 5,6 UV-I 2,4 C 53 % 57 % 68 % 1020,7 hPa 0,0 l/m 8,0 km/h (2 Bft) 0,17 h 13,5 km/h (3 Bft)
30.07.2009 13:00 23,5 C 21,5 C 5,7 UV-I 2,4 C 52 % 53 % 70 % 1021,1 hPa 0,0 l/m 7,0 km/h (2 Bft) 0,27 h 13,4 km/h (3 Bft)
30.07.2009 14:00 24,1 C 22,4 C 5,5 UV-I 2,3 C 50 % 48 % 64 % 1021,1 hPa 0,0 l/m 8,0 km/h (2 Bft) 0,30 h 13,2 km/h (3 Bft)
30.07.2009 15:00 24,7 C 23,1 C 4,8 UV-I 2,7 C 49 % 47 % 75 % 1021,1 hPa 0,0 l/m 6,5 km/h (2 Bft) 0,33 h 12,0 km/h (2 Bft)
30.07.2009 16:00 25,1 C 22,6 C 4,4 UV-I 1,6 C 48 % 48 % 43 % 1021,4 hPa 0,0 l/m 6,0 km/h (2 Bft) 0,33 h 9,4 km/h (2 Bft)
30.07.2009 17:00 25,3 C 22,3 C 2,4 UV-I 1,4 C 48 % 51 % 40 % 1021,5 hPa 0,0 l/m 5,1 km/h (1 Bft) 0,00 h 8,7 km/h (2 Bft)
30.07.2009 18:00 25,3 C 21,4 C 1,6 UV-I 1,2 C 48 % 54 % 35 % 1022,0 hPa 0,0 l/m 3,7 km/h (1 Bft) 0,03 h 7,6 km/h (2 Bft)
30.07.2009 19:00 24,8 C 21,0 C 0,9 UV-I 0,0 C 45 % 48 % 0 % 1022,2 hPa 0,0 l/m 5,0 km/h (1 Bft) 0,00 h 9,4 km/h (2 Bft)
30.07.2009 20:00 24,2 C 20,4 C 0,2 UV-I 0,0 C 43 % 45 % 0 % 1022,5 hPa 0,0 l/m 5,0 km/h (1 Bft) 0,00 h 9,2 km/h (2 Bft)
30.07.2009 21:00 23,6 C 19,0 C 0,0 UV-I 0,0 C 43 % 48 % 0 % 1023,4 hPa 0,0 l/m 2,7 km/h (1 Bft) 0,00 h 5,5 km/h (1 Bft)
30.07.2009 22:00 23,2 C 17,0 C 0,0 UV-I 0,0 C 46 % 62 % 0 % 1024,2 hPa 0,0 l/m 1,8 km/h (1 Bft) 0,00 h 2,9 km/h (1 Bft)
30.07.2009 23:00 22,7 C 15,3 C 0,0 UV-I 0,0 C 48 % 68 % 0 % 1024,6 hPa 0,0 l/m 0,3 km/h (0 Bft) 0,00 h 0,5 km/h (0 Bft)
31.07.2009 00:00 22,4 C 14,1 C 0,0 UV-I 0,0 C 48 % 72 % 0 % 1024,7 hPa 0,0 l/m 0,1 km/h (0 Bft) 0,00 h 0,0 km/h (0 Bft)
31.07.2009 01:00 22,0 C 12,9 C 0,0 UV-I 0,0 C 49 % 77 % 0 % 1024,7 hPa 0,0 l/m 0,0 km/h (0 Bft) 0,00 h 0,0 km/h (0 Bft)
31.07.2009 02:00 21,6 C 12,0 C 0,0 UV-I 0,0 C 50 % 81 % 0 % 1024,8 hPa 0,0 l/m 0,1 km/h (0 Bft) 0,00 h 0,6 km/h (0 Bft)
31.07.2009 03:00 21,3 C 11,6 C 0,0 UV-I 0,0 C 51 % 84 % 0 % 1024,8 hPa 0,0 l/m 0,1 km/h (0 Bft) 0,00 h 0,7 km/h (0 Bft)
31.07.2009 04:00 21,1 C 11,7 C 0,0 UV-I 0,0 C 51 % 82 % 0 % 1024,8 hPa 0,0 l/m 0,3 km/h (0 Bft) 0,00 h 1,3 km/h (1 Bft)
31.07.2009 05:00 20,9 C 11,5 C 0,0 UV-I 0,0 C 51 % 82 % 0 % 1024,6 hPa 0,0 l/m 0,0 km/h (0 Bft) 0,00 h 0,1 km/h (0 Bft)
31.07.2009 06:00 20,8 C 11,2 C 0,0 UV-I 0,0 C 51 % 84 % 1 % 1024,7 hPa 0,0 l/m 0,0 km/h (0 Bft) 0,00 h 0,2 km/h (0 Bft)
31.07.2009 07:00 20,8 C 12,0 C 0,5 UV-I 0,6 C 52 % 84 % 17 % 1024,6 hPa 0,0 l/m 0,1 km/h (0 Bft) 0,00 h 0,2 km/h (0 Bft)
31.07.2009 08:00 21,0 C 13,4 C 1,1 UV-I 1,3 C 52 % 81 % 36 % 1024,8 hPa 0,0 l/m 0,4 km/h (0 Bft) 0,00 h 1,1 km/h (0 Bft)
31.07.2009 09:00 21,4 C 15,0 C 2,0 UV-I 2,1 C 52 % 77 % 59 % 1025,1 hPa 0,0 l/m 0,8 km/h (0 Bft) 0,00 h 2,1 km/h (1 Bft)
31.07.2009 10:00 21,7 C 16,6 C 3,1 UV-I 2,6 C 52 % 73 % 75 % 1025,4 hPa 0,0 l/m 0,5 km/h (0 Bft) 0,20 h 2,0 km/h (1 Bft)
31.07.2009 11:00 22,0 C 17,8 C 2,2 UV-I 1,0 C 52 % 70 % 30 % 1025,2 hPa 0,0 l/m 1,4 km/h (1 Bft) 0,00 h 4,3 km/h (1 Bft)
31.07.2009 12:00 22,2 C 19,0 C 5,0 UV-I 3,1 C 52 % 65 % 67 % 1024,9 hPa 0,0 l/m 1,0 km/h (0 Bft) 0,33 h 2,8 km/h (1 Bft)
31.07.2009 13:00 22,7 C 22,2 C 7,6 UV-I 5,0 C 50 % 52 % 100 % 1024,4 hPa 0,0 l/m 2,4 km/h (1 Bft) 0,77 h 4,1 km/h (1 Bft)
31.07.2009 14:00 23,4 C 23,4 C 6,3 UV-I 4,2 C 48 % 45 % 97 % 1024,1 hPa 0,0 l/m 2,0 km/h (1 Bft) 0,67 h 3,7 km/h (1 Bft)
31.07.2009 15:00 24,3 C 24,8 C 6,4 UV-I 4,2 C 45 % 41 % 100 % 1023,5 hPa 0,0 l/m 1,9 km/h (1 Bft) 0,50 h 2,9 km/h (1 Bft)
31.07.2009 16:00 25,3 C 25,9 C 7,7 UV-I 3,8 C 42 % 37 % 91 % 1022,9 hPa 0,0 l/m 2,1 km/h (1 Bft) 0,57 h 5,0 km/h (1 Bft)
31.07.2009 17:00 25,9 C 25,3 C 2,9 UV-I 1,8 C 40 % 37 % 45 % 1022,5 hPa 0,0 l/m 1,5 km/h (1 Bft) 0,23 h 3,8 km/h (1 Bft)
31.07.2009 18:00 25,5 C 24,1 C 2,2 UV-I 1,5 C 40 % 36 % 44 % 1022,4 hPa 0,0 l/m 0,6 km/h (0 Bft) 0,00 h 1,4 km/h (1 Bft)
31.07.2009 19:00 25,0 C 22,8 C 1,0 UV-I 0,1 C 41 % 39 % 3 % 1021,8 hPa 0,0 l/m 0,0 km/h (0 Bft) 0,00 h 0,0 km/h (0 Bft)
31.07.2009 20:00 24,6 C 21,6 C 0,3 UV-I 0,0 C 41 % 42 % 0 % 1021,3 hPa 0,0 l/m 0,0 km/h (0 Bft) 0,00 h 0,3 km/h (0 Bft)
31.07.2009 21:00 24,1 C 19,9 C 0,0 UV-I 0,0 C 43 % 50 % 0 % 1021,2 hPa 0,0 l/m 0,0 km/h (0 Bft) 0,00 h 0,0 km/h (0 Bft)
31.07.2009 22:00 23,6 C 18,0 C 0,0 UV-I 0,0 C 45 % 59 % 0 % 1020,8 hPa 0,0 l/m 0,0 km/h (0 Bft) 0,00 h 0,0 km/h (0 Bft)
31.07.2009 23:00 23,0 C 16,4 C 0,0 UV-I 0,0 C 48 % 68 % 0 % 1020,3 hPa 0,0 l/m 0,0 km/h (0 Bft) 0,00 h 0,0 km/h (0 Bft)
01.08.2009 00:00 22,7 C 15,1 C 0,0 UV-I 0,0 C 49 % 73 % 0 % 1019,9 hPa 0,0 l/m 0,0 km/h (0 Bft) 0,00 h 0,0 km/h (0 Bft)
01.08.2009 01:00 22,4 C 14,4 C 0,0 UV-I 0,0 C 50 % 76 % 0 % 1019,2 hPa 0,0 l/m 0,0 km/h (0 Bft) 0,00 h 0,0 km/h (0 Bft)
01.08.2009 02:00 22,1 C 13,8 C 0,0 UV-I 0,0 C 51 % 78 % 0 % 1018,5 hPa 0,0 l/m 0,0 km/h (0 Bft) 0,00 h 0,0 km/h (0 Bft)
01.08.2009 03:00 21,9 C 13,7 C 0,0 UV-I 0,0 C 50 % 78 % 0 % 1017,8 hPa 0,0 l/m 0,0 km/h (0 Bft) 0,00 h 0,4 km/h (0 Bft)
01.08.2009 04:00 21,6 C 13,5 C 0,0 UV-I 0,0 C 50 % 78 % 0 % 1017,3 hPa 0,0 l/m 1,3 km/h (1 Bft) 0,00 h 3,5 km/h (1 Bft)
01.08.2009 05:00 21,4 C 13,3 C 0,0 UV-I 0,0 C 51 % 79 % 0 % 1016,9 hPa 0,0 l/m 0,1 km/h (0 Bft) 0,00 h 0,4 km/h (0 Bft)
01.08.2009 06:00 21,4 C 13,5 C 0,0 UV-I 0,0 C 51 % 79 % 1 % 1016,6 hPa 0,0 l/m 0,0 km/h (0 Bft) 0,00 h 0,3 km/h (0 Bft)
01.08.2009 07:00 21,5 C 14,1 C 0,5 UV-I 0,4 C 51 % 78 % 11 % 1016,1 hPa 0,0 l/m 0,1 km/h (0 Bft) 0,00 h 0,5 km/h (0 Bft)
01.08.2009 08:00 21,7 C 15,5 C 1,2 UV-I 1,4 C 51 % 75 % 40 % 1015,7 hPa 0,0 l/m 0,6 km/h (0 Bft) 0,00 h 2,0 km/h (1 Bft)
01.08.2009 09:00 21,9 C 17,3 C 1,9 UV-I 1,8 C 51 % 69 % 52 % 1015,2 hPa 0,0 l/m 0,9 km/h (0 Bft) 0,10 h 3,2 km/h (1 Bft)
01.08.2009 10:00 22,1 C 19,3 C 6,8 UV-I 4,6 C 51 % 64 % 99 % 1014,8 hPa 0,0 l/m 1,7 km/h (1 Bft) 0,87 h 5,1 km/h (1 Bft)
01.08.2009 11:00 22,4 C 22,5 C 9,9 UV-I 5,0 C 51 % 56 % 100 % 1014,3 hPa 0,0 l/m 2,1 km/h (1 Bft) 0,60 h 3,3 km/h (1 Bft)
01.08.2009 12:00 22,8 C 25,0 C 6,6 UV-I 4,2 C 51 % 51 % 93 % 1013,7 hPa 0,0 l/m 1,1 km/h (1 Bft) 0,63 h 3,8 km/h (1 Bft)
01.08.2009 13:00 23,2 C 26,9 C 6,2 UV-I 3,2 C 51 % 46 % 79 % 1013,2 hPa 0,0 l/m 2,0 km/h (1 Bft) 0,23 h 3,3 km/h (1 Bft)
01.08.2009 14:00 24,0 C 28,7 C 7,3 UV-I 4,8 C 50 % 43 % 100 % 1012,6 hPa 0,0 l/m 2,2 km/h (1 Bft) 0,50 h 4,6 km/h (1 Bft)
01.08.2009 15:00 24,7 C 28,6 C 3,5 UV-I 1,0 C 49 % 44 % 26 % 1012,0 hPa 0,0 l/m 0,9 km/h (0 Bft) 0,13 h 2,2 km/h (1 Bft)
01.08.2009 16:00 25,2 C 29,2 C 6,5 UV-I 3,9 C 49 % 43 % 91 % 1011,2 hPa 0,0 l/m 2,6 km/h (1 Bft) 0,53 h 5,1 km/h (1 Bft)
01.08.2009 17:00 25,8 C 29,1 C 2,8 UV-I 2,7 C 48 % 41 % 63 % 1010,9 hPa 0,0 l/m 1,7 km/h (1 Bft) 0,23 h 5,1 km/h (1 Bft)
01.08.2009 18:00 26,1 C 28,4 C 1,9 UV-I 1,3 C 46 % 41 % 37 % 1010,4 hPa 0,0 l/m 2,6 km/h (1 Bft) 0,00 h 6,6 km/h (2 Bft)
01.08.2009 19:00 25,8 C 27,2 C 1,0 UV-I 0,0 C 47 % 42 % 1 % 1010,2 hPa 0,0 l/m 0,6 km/h (0 Bft) 0,00 h 1,1 km/h (0 Bft)
01.08.2009 20:00 25,3 C 25,8 C 0,3 UV-I 0,0 C 48 % 47 % 0 % 1009,8 hPa 0,0 l/m 0,1 km/h (0 Bft) 0,00 h 0,0 km/h (0 Bft)
01.08.2009 21:00 24,9 C 23,5 C 0,0 UV-I 0,0 C 50 % 59 % 0 % 1009,5 hPa 0,0 l/m 0,0 km/h (0 Bft) 0,00 h 0,0 km/h (0 Bft)
01.08.2009 22:00 24,5 C 21,5 C 0,0 UV-I 0,0 C 53 % 67 % 0 % 1010,1 hPa 0,0 l/m 0,0 km/h (0 Bft) 0,00 h 0,0 km/h (0 Bft)
01.08.2009 23:00 24,1 C 20,4 C 0,0 UV-I 0,0 C 55 % 73 % 0 % 1009,1 hPa 0,0 l/m 0,0 km/h (0 Bft) 0,00 h 0,0 km/h (0 Bft)
02.08.2009 00:00 23,9 C 20,0 C 0,0 UV-I 0,0 C 56 % 73 % 0 % 1008,4 hPa 0,0 l/m 0,2 km/h (0 Bft) 0,00 h 1,0 km/h (0 Bft)
02.08.2009 01:00 23,8 C 20,0 C 0,0 UV-I 0,0 C 56 % 70 % 0 % 1008,2 hPa 0,0 l/m 0,1 km/h (0 Bft) 0,00 h 0,3 km/h (0 Bft)
02.08.2009 02:00 23,7 C 19,6 C 0,0 UV-I 0,0 C 56 % 73 % 0 % 1008,0 hPa 0,0 l/m 0,1 km/h (0 Bft) 0,00 h 0,3 km/h (0 Bft)
02.08.2009 03:00 23,6 C 19,3 C 0,0 UV-I 0,0 C 57 % 76 % 0 % 1008,0 hPa 0,0 l/m 0,0 km/h (0 Bft) 0,00 h 0,0 km/h (0 Bft)
02.08.2009 04:00 23,5 C 19,2 C 0,0 UV-I 0,0 C 58 % 79 % 0 % 1007,8 hPa 0,0 l/m 0,4 km/h (0 Bft) 0,00 h 1,5 km/h (1 Bft)
02.08.2009 05:00 23,3 C 18,7 C 0,0 UV-I 0,0 C 59 % 81 % 0 % 1007,3 hPa 0,0 l/m 0,1 km/h (0 Bft) 0,00 h 1,1 km/h (1 Bft)
02.08.2009 06:00 23,2 C 18,2 C 0,0 UV-I 0,0 C 60 % 83 % 0 % 1007,8 hPa 0,0 l/m 0,6 km/h (0 Bft) 0,00 h 1,9 km/h (1 Bft)
02.08.2009 07:00 23,1 C 17,9 C 0,0 UV-I 0,0 C 60 % 84 % 0 % 1007,4 hPa 1,5 l/m 0,3 km/h (0 Bft) 0,00 h 1,1 km/h (1 Bft)
02.08.2009 08:00 22,9 C 17,4 C 0,0 UV-I 0,0 C 63 % 88 % 0 % 1008,3 hPa 5,3 l/m 0,6 km/h (0 Bft) 0,00 h 1,9 km/h (1 Bft)
02.08.2009 09:00 22,7 C 17,0 C 0,8 UV-I 0,0 C 64 % 90 % 0 % 1009,3 hPa 2,5 l/m 0,4 km/h (0 Bft) 0,00 h 1,7 km/h (1 Bft)
02.08.2009 10:00 22,8 C 18,0 C 2,6 UV-I 1,2 C 65 % 90 % 34 % 1009,3 hPa 0,0 l/m 1,0 km/h (0 Bft) 0,00 h 3,2 km/h (1 Bft)
02.08.2009 11:00 23,1 C 19,4 C 4,1 UV-I 1,9 C 64 % 86 % 54 % 1009,9 hPa 0,0 l/m 2,1 km/h (1 Bft) 0,00 h 4,4 km/h (1 Bft)
02.08.2009 12:00 23,2 C 19,8 C 1,0 UV-I 0,1 C 64 % 82 % 4 % 1010,1 hPa 0,0 l/m 1,0 km/h (0 Bft) 0,00 h 2,2 km/h (1 Bft)
02.08.2009 13:00 23,0 C 18,8 C 0,2 UV-I 0,0 C 64 % 85 % 0 % 1010,7 hPa 1,0 l/m 1,4 km/h (1 Bft) 0,00 h 3,3 km/h (1 Bft)
02.08.2009 14:00 22,8 C 18,3 C 2,1 UV-I 0,0 C 65 % 89 % 1 % 1011,5 hPa 0,0 l/m 2,8 km/h (1 Bft) 0,00 h 6,0 km/h (2 Bft)
02.08.2009 15:00 22,9 C 18,6 C 1,0 UV-I 0,0 C 65 % 88 % 0 % 1011,9 hPa 0,1 l/m 4,1 km/h (1 Bft) 0,00 h 9,7 km/h (2 Bft)
02.08.2009 16:00 22,8 C 17,9 C 1,1 UV-I 0,0 C 64 % 86 % 0 % 1012,9 hPa 0,0 l/m 4,7 km/h (1 Bft) 0,00 h 7,3 km/h (2 Bft)
02.08.2009 17:00 22,8 C 18,1 C 1,7 UV-I 0,5 C 63 % 83 % 13 % 1013,5 hPa 0,0 l/m 4,3 km/h (1 Bft) 0,00 h 9,2 km/h (2 Bft)
02.08.2009 18:00 23,0 C 19,0 C 2,0 UV-I 1,4 C 61 % 75 % 40 % 1014,1 hPa 0,0 l/m 3,3 km/h (1 Bft) 0,00 h 6,8 km/h (2 Bft)
02.08.2009 19:00 23,2 C 19,2 C 1,1 UV-I 0,3 C 60 % 74 % 8 % 1014,4 hPa 0,0 l/m 2,9 km/h (1 Bft) 0,00 h 7,0 km/h (2 Bft)
02.08.2009 20:00 23,3 C 18,5 C 0,3 UV-I 0,0 C 58 % 74 % 0 % 1015,1 hPa 0,0 l/m 0,4 km/h (0 Bft) 0,00 h 0,6 km/h (0 Bft)
02.08.2009 21:00 23,1 C 17,5 C 0,0 UV-I 0,0 C 59 % 78 % 0 % 1015,7 hPa 0,0 l/m 0,0 km/h (0 Bft) 0,00 h 0,0 km/h (0 Bft)
02.08.2009 22:00 22,7 C 16,2 C 0,0 UV-I 0,0 C 60 % 82 % 0 % 1016,2 hPa 0,0 l/m 0,0 km/h (0 Bft) 0,00 h 0,0 km/h (0 Bft)
02.08.2009 23:00 22,3 C 15,0 C 0,0 UV-I 0,0 C 61 % 85 % 0 % 1016,4 hPa 0,0 l/m 0,0 km/h (0 Bft) 0,00 h 0,0 km/h (0 Bft)
Min-Datum _ 31.07.09 31.07.09 27.07.09 27.07.09 31.07.09 31.07.09 27.07.09 02.08.09 - 27.07.09 - 27.07.09
_ Min-Zeit 06:42 06:04 00:00 00:00 17:08 18:26 00:00 07:36 - 00:00 - 00:00
Minimum _ 20,7 C 11,1 C 0,0 UV-I 0,0 C 40 % 34 % 0 % 1006,8 hPa - 0,0 km/h (0 Bft) - 0,0 km/h (0 Bft)
Max-Datum _ 01.08.09 27.07.09 27.07.09 29.07.09 02.08.09 02.08.09 27.07.09 31.07.09 02.08.09 30.07.09 27.07.09 30.07.09
_ Max-Zeit 18:30 14:14 10:42 11:18 14:22 09:50 09:54 09:56 08:26 10:32 09:52 11:54
Maximum _ 26,2 C 29,7 C 15,2 UV-I 6,8 C 66 % 91 % 100 % 1025,4 hPa 5,3 l/m 9,6 km/h
W (2 Bft)
0,03 h 28,6 km/h
N-NO (4 Bft)
Durchschnitt _ 23,2 C 19,6 C 2,1 UV-I 1,0 C 53 % 66 % 26 % 1016,8 hPa #12,2 l/m 2,1 km/h (1 Bft) #22:40 h 4,2 km/h (1 Bft)
© 2012 W. Hausmann